KWMC/WMC METAR and TAF weather

Enter ICAO airport designator
Station Type Date Time Source
KWMC METAR 2021/09/16 10:56 UTC NOAA

KWMC 161056Z AUTO 30012KT 10SM CLR 17/02 A2992 RMK AO2 SLP079 T01670017 $


Station Type Date Time Source
KWMC Decoded METAR 2021/09/16 10:56 UTC NOAA

WINNEMUCCA MUNICIPAL AIRPORT, NV, United States (KWMC) 40-54N 117-48W 1310M
Sep 16, 2021 - 06:56 AM EDT / 2021.09.16 1056 UTC
Wind: from the WNW (300 degrees) at 14 MPH (12 KT):0
Visibility: 10 mile(s):0
Sky conditions: clear
Temperature: 62.1 F (16.7 C)
Dew Point: 35.1 F (1.7 C)
Relative Humidity: 36%
Pressure (altimeter): 29.92 in. Hg (1013 hPa)
ob: KWMC 161056Z AUTO 30012KT 10SM CLR 17/02 A2992 RMK AO2 SLP079 T01670017
cycle: 11

Station Type Date Time Source
KWMC TAF 2021/09/16 12:22 UTC NOAA

TAF KWMC 161120Z 1612/1712 VRB06KT P6SM FEW120
FM162000 35009G17KT P6SM SKC
FM170400 06007KT P6SM FEW250

Example: see airport list